sensor_id;sensor_type;location;lat;lon;timestamp;pressure;altitude;pressure_sealevel;temperature;humidity
33161;BME280;19522;45.656;11.302;2024-03-08T00:02:23;98364.69;;;7.66;100.00
33161;BME280;19522;45.656;11.302;2024-03-08T00:04:49;98409.09;;;7.88;100.00
33161;BME280;19522;45.656;11.302;2024-03-08T00:07:15;98364.03;;;7.64;100.00
33161;BME280;19522;45.656;11.302;2024-03-08T00:09:40;98360.84;;;7.44;100.00
33161;BME280;19522;45.656;11.302;2024-03-08T00:12:06;98398.97;;;7.74;100.00
33161;BME280;19522;45.656;11.302;2024-03-08T00:14:32;98369.59;;;7.62;100.00
33161;BME280;19522;45.656;11.302;2024-03-08T00:16:58;98332.09;;;7.51;100.00
33161;BME280;19522;45.656;11.302;2024-03-08T00:19:24;98377.50;;;7.80;100.00
33161;BME280;19522;45.656;11.302;2024-03-08T00:21:49;98387.47;;;7.80;100.00
33161;BME280;19522;45.656;11.302;2024-03-08T00:24:14;98400.34;;;7.78;100.00
33161;BME280;19522;45.656;11.302;2024-03-08T00:26:40;98387.63;;;7.87;100.00
33161;BME280;19522;45.656;11.302;2024-03-08T00:29:07;98396.38;;;7.97;100.00
33161;BME280;19522;45.656;11.302;2024-03-08T00:31:33;98398.75;;;8.00;100.00
33161;BME280;19522;45.656;11.302;2024-03-08T00:33:58;98395.06;;;7.85;100.00
33161;BME280;19522;45.656;11.302;2024-03-08T00:36:24;98390.19;;;7.72;100.00
33161;BME280;19522;45.656;11.302;2024-03-08T00:38:50;98362.50;;;7.61;100.00
33161;BME280;19522;45.656;11.302;2024-03-08T00:41:15;98396.47;;;7.64;100.00
33161;BME280;19522;45.656;11.302;2024-03-08T00:43:41;98326.06;;;7.24;100.00
33161;BME280;19522;45.656;11.302;2024-03-08T00:46:06;98371.97;;;7.57;100.00
33161;BME280;19522;45.656;11.302;2024-03-08T00:48:33;98387.97;;;7.75;100.00
33161;BME280;19522;45.656;11.302;2024-03-08T00:51:01;98320.97;;;7.46;100.00
33161;BME280;19522;45.656;11.302;2024-03-08T00:53:27;98386.44;;;7.89;100.00
33161;BME280;19522;45.656;11.302;2024-03-08T00:55:52;98365.34;;;7.76;100.00
33161;BME280;19522;45.656;11.302;2024-03-08T00:58:18;98386.59;;;7.96;100.00
33161;BME280;19522;45.656;11.302;2024-03-08T01:00:44;98385.97;;;7.77;100.00
33161;BME280;19522;45.656;11.302;2024-03-08T01:03:10;98371.81;;;7.51;100.00
33161;BME280;19522;45.656;11.302;2024-03-08T01:05:36;98361.69;;;7.53;100.00
33161;BME280;19522;45.656;11.302;2024-03-08T01:08:01;98316.97;;;7.17;100.00
33161;BME280;19522;45.656;11.302;2024-03-08T01:10:28;98379.38;;;7.72;100.00
33161;BME280;19522;45.656;11.302;2024-03-08T01:12:57;98372.09;;;7.80;100.00
33161;BME280;19522;45.656;11.302;2024-03-08T01:15:24;98345.28;;;7.54;100.00
33161;BME280;19522;45.656;11.302;2024-03-08T01:17:50;98369.78;;;7.61;100.00
33161;BME280;19522;45.656;11.302;2024-03-08T01:20:15;98373.16;;;7.63;100.00
33161;BME280;19522;45.656;11.302;2024-03-08T01:22:41;98336.34;;;7.54;100.00
33161;BME280;19522;45.656;11.302;2024-03-08T01:25:07;98365.38;;;7.68;100.00
33161;BME280;19522;45.656;11.302;2024-03-08T01:27:34;98326.91;;;7.41;100.00
33161;BME280;19522;45.656;11.302;2024-03-08T01:30:00;98359.66;;;7.63;100.00
33161;BME280;19522;45.656;11.302;2024-03-08T01:32:26;98360.81;;;7.60;100.00
33161;BME280;19522;45.656;11.302;2024-03-08T01:34:51;98344.44;;;7.45;100.00
33161;BME280;19522;45.656;11.302;2024-03-08T01:37:17;98333.13;;;7.42;100.00
33161;BME280;19522;45.656;11.302;2024-03-08T01:39:42;98358.97;;;7.53;100.00
33161;BME280;19522;45.656;11.302;2024-03-08T01:42:08;98330.66;;;7.24;100.00
33161;BME280;19522;45.656;11.302;2024-03-08T01:44:33;98349.88;;;7.29;100.00
33161;BME280;19522;45.656;11.302;2024-03-08T01:46:59;98353.94;;;7.33;100.00
33161;BME280;19522;45.656;11.302;2024-03-08T01:49:26;98351.88;;;7.27;100.00
33161;BME280;19522;45.656;11.302;2024-03-08T01:51:53;98353.25;;;7.23;100.00
33161;BME280;19522;45.656;11.302;2024-03-08T01:54:23;98328.44;;;7.27;100.00
33161;BME280;19522;45.656;11.302;2024-03-08T01:56:49;98350.53;;;7.47;100.00
33161;BME280;19522;45.656;11.302;2024-03-08T01:59:16;98342.44;;;7.39;100.00
33161;BME280;19522;45.656;11.302;2024-03-08T02:01:41;98272.09;;;6.99;100.00
33161;BME280;19522;45.656;11.302;2024-03-08T02:04:07;98312.41;;;7.17;100.00
33161;BME280;19522;45.656;11.302;2024-03-08T02:06:33;98336.34;;;7.45;100.00
33161;BME280;19522;45.656;11.302;2024-03-08T02:08:59;98311.38;;;7.43;100.00
33161;BME280;19522;45.656;11.302;2024-03-08T02:11:24;98303.41;;;7.42;100.00
33161;BME280;19522;45.656;11.302;2024-03-08T02:13:53;98317.56;;;7.60;100.00
33161;BME280;19522;45.656;11.302;2024-03-08T02:16:21;98323.34;;;7.57;100.00
33161;BME280;19522;45.656;11.302;2024-03-08T02:18:47;98336.31;;;7.62;100.00
33161;BME280;19522;45.656;11.302;2024-03-08T02:21:13;98309.50;;;7.44;100.00
33161;BME280;19522;45.656;11.302;2024-03-08T02:23:43;98338.03;;;7.55;100.00
33161;BME280;19522;45.656;11.302;2024-03-08T02:26:09;98304.44;;;7.41;100.00
33161;BME280;19522;45.656;11.302;2024-03-08T02:28:34;98333.97;;;7.59;100.00
33161;BME280;19522;45.656;11.302;2024-03-08T02:31:00;98333.66;;;7.54;100.00
33161;BME280;19522;45.656;11.302;2024-03-08T02:33:27;98333.25;;;7.65;100.00
33161;BME280;19522;45.656;11.302;2024-03-08T02:35:52;98337.34;;;7.61;100.00
33161;BME280;19522;45.656;11.302;2024-03-08T02:38:20;98332.75;;;7.70;100.00
33161;BME280;19522;45.656;11.302;2024-03-08T02:41:04;98317.94;;;7.41;100.00
33161;BME280;19522;45.656;11.302;2024-03-08T02:43:30;98303.94;;;7.37;100.00
33161;BME280;19522;45.656;11.302;2024-03-08T02:45:55;98299.97;;;7.73;100.00
33161;BME280;19522;45.656;11.302;2024-03-08T02:48:21;98294.09;;;7.61;100.00
33161;BME280;19522;45.656;11.302;2024-03-08T02:50:47;98306.41;;;7.63;100.00
33161;BME280;19522;45.656;11.302;2024-03-08T02:53:13;98339.72;;;7.64;100.00
33161;BME280;19522;45.656;11.302;2024-03-08T02:55:39;98336.34;;;7.45;100.00
33161;BME280;19522;45.656;11.302;2024-03-08T02:58:06;98330.13;;;7.37;100.00
33161;BME280;19522;45.656;11.302;2024-03-08T03:00:35;98287.25;;;6.84;100.00
33161;BME280;19522;45.656;11.302;2024-03-08T03:03:01;98267.03;;;6.88;100.00
33161;BME280;19522;45.656;11.302;2024-03-08T03:05:28;98306.66;;;7.21;100.00
33161;BME280;19522;45.656;11.302;2024-03-08T03:07:55;98318.31;;;7.13;100.00
33161;BME280;19522;45.656;11.302;2024-03-08T03:10:21;98326.75;;;7.26;100.00
33161;BME280;19522;45.656;11.302;2024-03-08T03:12:47;98317.97;;;7.16;100.00
33161;BME280;19522;45.656;11.302;2024-03-08T03:15:14;98313.41;;;6.92;100.00
33161;BME280;19522;45.656;11.302;2024-03-08T03:17:40;98335.03;;;6.92;100.00
33161;BME280;19522;45.656;11.302;2024-03-08T03:20:08;98287.94;;;6.69;100.00
33161;BME280;19522;45.656;11.302;2024-03-08T03:22:47;98311.72;;;6.99;100.00
33161;BME280;19522;45.656;11.302;2024-03-08T03:25:20;98339.25;;;7.27;100.00
33161;BME280;19522;45.656;11.302;2024-03-08T03:27:54;98325.56;;;7.21;100.00
33161;BME280;19522;45.656;11.302;2024-03-08T03:30:26;98339.75;;;7.31;100.00
33161;BME280;19522;45.656;11.302;2024-03-08T03:32:52;98320.34;;;7.27;100.00
33161;BME280;19522;45.656;11.302;2024-03-08T03:35:20;98344.28;;;7.47;100.00
33161;BME280;19522;45.656;11.302;2024-03-08T03:37:46;98330.47;;;7.25;100.00
33161;BME280;19522;45.656;11.302;2024-03-08T03:43:15;98246.63;;;6.77;100.00
33161;BME280;19522;45.656;11.302;2024-03-08T03:45:41;98280.66;;;6.45;100.00
33161;BME280;19522;45.656;11.302;2024-03-08T03:48:07;98354.91;;;6.82;100.00
33161;BME280;19522;45.656;11.302;2024-03-08T03:50:35;98344.47;;;7.04;100.00
33161;BME280;19522;45.656;11.302;2024-03-08T03:53:00;98326.41;;;6.96;100.00
33161;BME280;19522;45.656;11.302;2024-03-08T03:55:27;98331.97;;;7.36;100.00
33161;BME280;19522;45.656;11.302;2024-03-08T03:57:53;98286.91;;;7.04;100.00
33161;BME280;19522;45.656;11.302;2024-03-08T04:00:19;98349.19;;;7.43;100.00
33161;BME280;19522;45.656;11.302;2024-03-08T04:02:45;98351.22;;;7.41;100.00
33161;BME280;19522;45.656;11.302;2024-03-08T04:05:12;98350.88;;;7.11;100.00
33161;BME280;19522;45.656;11.302;2024-03-08T04:07:38;98354.28;;;7.22;100.00
33161;BME280;19522;45.656;11.302;2024-03-08T04:10:06;98295.16;;;6.61;100.00
33161;BME280;19522;45.656;11.302;2024-03-08T04:12:33;98340.91;;;6.79;100.00
33161;BME280;19522;45.656;11.302;2024-03-08T04:14:58;98365.03;;;6.89;100.00
33161;BME280;19522;45.656;11.302;2024-03-08T04:17:24;98357.81;;;6.89;100.00
33161;BME280;19522;45.656;11.302;2024-03-08T04:19:50;98353.59;;;6.86;100.00
33161;BME280;19522;45.656;11.302;2024-03-08T04:22:15;98358.50;;;6.99;100.00
33161;BME280;19522;45.656;11.302;2024-03-08T04:24:43;98350.84;;;6.78;100.00
33161;BME280;19522;45.656;11.302;2024-03-08T04:27:08;98370.56;;;6.54;100.00
33161;BME280;19522;45.656;11.302;2024-03-08T04:29:34;98367.22;;;6.68;100.00
33161;BME280;19522;45.656;11.302;2024-03-08T04:32:02;98362.31;;;6.64;100.00
33161;BME280;19522;45.656;11.302;2024-03-08T04:34:29;98361.81;;;6.60;100.00
33161;BME280;19522;45.656;11.302;2024-03-08T04:36:54;98353.00;;;6.50;100.00
33161;BME280;19522;45.656;11.302;2024-03-08T04:39:22;98362.31;;;6.72;100.00
33161;BME280;19522;45.656;11.302;2024-03-08T04:41:47;98366.41;;;6.84;100.00
33161;BME280;19522;45.656;11.302;2024-03-08T04:44:14;98342.22;;;6.58;100.00
33161;BME280;19522;45.656;11.302;2024-03-08T04:46:40;98325.56;;;6.03;100.00
33161;BME280;19522;45.656;11.302;2024-03-08T04:49:06;98372.09;;;6.65;100.00
33161;BME280;19522;45.656;11.302;2024-03-08T04:51:32;98365.53;;;6.67;100.00
33161;BME280;19522;45.656;11.302;2024-03-08T04:53:59;98354.41;;;6.62;100.00
33161;BME280;19522;45.656;11.302;2024-03-08T04:56:25;98348.50;;;6.59;100.00
33161;BME280;19522;45.656;11.302;2024-03-08T04:58:51;98365.16;;;6.54;100.00
33161;BME280;19522;45.656;11.302;2024-03-08T05:01:16;98334.38;;;6.22;100.00
33161;BME280;19522;45.656;11.302;2024-03-08T05:03:42;98374.41;;;6.51;100.00
33161;BME280;19522;45.656;11.302;2024-03-08T05:06:07;98375.19;;;6.35;100.00
33161;BME280;19522;45.656;11.302;2024-03-08T05:08:33;98359.72;;;6.46;100.00
33161;BME280;19522;45.656;11.302;2024-03-08T05:10:59;98351.13;;;6.50;100.00
33161;BME280;19522;45.656;11.302;2024-03-08T05:13:32;98372.78;;;6.75;100.00
33161;BME280;19522;45.656;11.302;2024-03-08T05:15:57;98370.78;;;6.85;100.00
33161;BME280;19522;45.656;11.302;2024-03-08T05:18:24;98372.28;;;6.20;100.00
33161;BME280;19522;45.656;11.302;2024-03-08T05:20:50;98360.94;;;6.51;100.00
33161;BME280;19522;45.656;11.302;2024-03-08T05:23:16;98355.22;;;6.71;100.00
33161;BME280;19522;45.656;11.302;2024-03-08T05:25:41;98376.41;;;6.41;100.00
33161;BME280;19522;45.656;11.302;2024-03-08T05:28:07;98362.34;;;6.21;100.00
33161;BME280;19522;45.656;11.302;2024-03-08T05:30:33;98362.94;;;6.06;100.00
33161;BME280;19522;45.656;11.302;2024-03-08T05:33:01;98379.69;;;6.10;100.00
33161;BME280;19522;45.656;11.302;2024-03-08T05:35:27;98368.09;;;5.91;100.00
33161;BME280;19522;45.656;11.302;2024-03-08T05:37:52;98377.38;;;6.32;100.00
33161;BME280;19522;45.656;11.302;2024-03-08T05:40:18;98377.59;;;6.04;100.00
33161;BME280;19522;45.656;11.302;2024-03-08T05:42:44;98382.75;;;5.97;100.00
33161;BME280;19522;45.656;11.302;2024-03-08T05:45:10;98385.88;;;5.84;100.00
33161;BME280;19522;45.656;11.302;2024-03-08T05:47:36;98359.50;;;5.61;100.00
33161;BME280;19522;45.656;11.302;2024-03-08T05:50:02;98352.16;;;5.72;100.00
33161;BME280;19522;45.656;11.302;2024-03-08T05:52:27;98382.06;;;6.21;100.00
33161;BME280;19522;45.656;11.302;2024-03-08T05:54:53;98371.09;;;5.88;100.00
33161;BME280;19522;45.656;11.302;2024-03-08T05:57:18;98387.69;;;6.02;100.00
33161;BME280;19522;45.656;11.302;2024-03-08T05:59:48;98384.69;;;6.05;100.00
33161;BME280;19522;45.656;11.302;2024-03-08T06:02:14;98393.41;;;5.99;100.00
33161;BME280;19522;45.656;11.302;2024-03-08T06:04:47;98396.38;;;6.14;100.00
33161;BME280;19522;45.656;11.302;2024-03-08T06:07:12;98389.97;;;5.88;100.00
33161;BME280;19522;45.656;11.302;2024-03-08T06:09:38;98337.41;;;5.58;100.00
33161;BME280;19522;45.656;11.302;2024-03-08T06:12:04;98387.09;;;5.90;100.00
33161;BME280;19522;45.656;11.302;2024-03-08T06:14:31;98396.72;;;5.92;100.00
33161;BME280;19522;45.656;11.302;2024-03-08T06:16:57;98407.13;;;6.48;100.00
33161;BME280;19522;45.656;11.302;2024-03-08T06:19:22;98403.75;;;6.46;100.00
33161;BME280;19522;45.656;11.302;2024-03-08T06:21:48;98405.91;;;6.00;100.00
33161;BME280;19522;45.656;11.302;2024-03-08T06:24:13;98416.34;;;6.03;100.00
33161;BME280;19522;45.656;11.302;2024-03-08T06:26:43;98417.19;;;6.30;100.00
33161;BME280;19522;45.656;11.302;2024-03-08T06:29:08;98427.25;;;6.19;100.00
33161;BME280;19522;45.656;11.302;2024-03-08T06:31:34;98403.53;;;5.78;100.00
33161;BME280;19522;45.656;11.302;2024-03-08T06:33:59;98370.19;;;5.53;100.00
33161;BME280;19522;45.656;11.302;2024-03-08T06:36:25;98425.38;;;5.93;100.00
33161;BME280;19522;45.656;11.302;2024-03-08T06:38:50;98388.50;;;5.68;100.00
33161;BME280;19522;45.656;11.302;2024-03-08T06:41:16;98431.44;;;5.69;100.00
33161;BME280;19522;45.656;11.302;2024-03-08T06:43:43;98428.28;;;5.74;100.00
33161;BME280;19522;45.656;11.302;2024-03-08T06:46:09;98439.28;;;5.81;100.00
33161;BME280;19522;45.656;11.302;2024-03-08T06:48:35;98425.31;;;5.85;100.00
33161;BME280;19522;45.656;11.302;2024-03-08T06:51:03;98439.75;;;5.76;100.00
33161;BME280;19522;45.656;11.302;2024-03-08T06:53:29;98421.38;;;5.53;100.00
33161;BME280;19522;45.656;11.302;2024-03-08T06:55:55;98421.59;;;5.60;100.00
33161;BME280;19522;45.656;11.302;2024-03-08T06:58:21;98432.78;;;5.47;100.00
33161;BME280;19522;45.656;11.302;2024-03-08T07:00:46;98432.13;;;5.27;100.00
33161;BME280;19522;45.656;11.302;2024-03-08T07:03:15;98444.03;;;5.24;100.00
33161;BME280;19522;45.656;11.302;2024-03-08T07:05:42;98414.63;;;5.05;100.00
33161;BME280;19522;45.656;11.302;2024-03-08T07:08:07;98417.66;;;5.10;100.00
33161;BME280;19522;45.656;11.302;2024-03-08T07:10:33;98427.97;;;5.33;100.00
33161;BME280;19522;45.656;11.302;2024-03-08T07:13:00;98428.59;;;5.08;100.00
33161;BME280;19522;45.656;11.302;2024-03-08T07:15:27;98430.75;;;5.23;100.00
33161;BME280;19522;45.656;11.302;2024-03-08T07:17:54;98439.56;;;5.15;100.00
33161;BME280;19522;45.656;11.302;2024-03-08T07:20:20;98417.81;;;5.26;100.00
33161;BME280;19522;45.656;11.302;2024-03-08T07:22:47;98425.94;;;5.35;100.00
33161;BME280;19522;45.656;11.302;2024-03-08T07:25:13;98396.97;;;5.10;100.00
33161;BME280;19522;45.656;11.302;2024-03-08T07:30:14;98377.00;;;5.13;100.00
33161;BME280;19522;45.656;11.302;2024-03-08T07:32:58;98424.88;;;5.45;100.00
33161;BME280;19522;45.656;11.302;2024-03-08T07:35:24;98392.81;;;5.16;100.00
33161;BME280;19522;45.656;11.302;2024-03-08T07:37:52;98399.13;;;5.43;100.00
33161;BME280;19522;45.656;11.302;2024-03-08T07:40:23;98416.97;;;5.26;100.00
33161;BME280;19522;45.656;11.302;2024-03-08T07:42:49;98416.56;;;5.39;100.00
33161;BME280;19522;45.656;11.302;2024-03-08T07:45:15;98428.69;;;5.17;100.00
33161;BME280;19522;45.656;11.302;2024-03-08T07:47:41;98434.19;;;5.15;100.00
33161;BME280;19522;45.656;11.302;2024-03-08T07:50:10;98419.84;;;5.06;100.00
33161;BME280;19522;45.656;11.302;2024-03-08T07:52:35;98436.22;;;5.13;100.00
33161;BME280;19522;45.656;11.302;2024-03-08T07:55:02;98446.91;;;5.23;100.00
33161;BME280;19522;45.656;11.302;2024-03-08T07:57:29;98438.28;;;5.19;100.00
33161;BME280;19522;45.656;11.302;2024-03-08T07:59:55;98443.97;;;5.16;100.00
33161;BME280;19522;45.656;11.302;2024-03-08T08:02:20;98445.25;;;5.66;100.00
33161;BME280;19522;45.656;11.302;2024-03-08T08:04:49;98440.44;;;5.34;100.00
33161;BME280;19522;45.656;11.302;2024-03-08T08:07:14;98438.66;;;5.24;100.00
33161;BME280;19522;45.656;11.302;2024-03-08T08:09:40;98440.50;;;5.24;100.00
33161;BME280;19522;45.656;11.302;2024-03-08T08:12:16;98444.97;;;5.33;100.00
33161;BME280;19522;45.656;11.302;2024-03-08T08:14:42;98450.91;;;5.19;100.00
33161;BME280;19522;45.656;11.302;2024-03-08T08:17:07;98421.50;;;4.89;100.00
33161;BME280;19522;45.656;11.302;2024-03-08T08:19:34;98430.06;;;5.03;100.00
33161;BME280;19522;45.656;11.302;2024-03-08T08:22:01;98464.06;;;5.22;100.00
33161;BME280;19522;45.656;11.302;2024-03-08T08:24:27;98460.00;;;5.18;100.00
33161;BME280;19522;45.656;11.302;2024-03-08T08:26:53;98426.22;;;5.23;100.00
33161;BME280;19522;45.656;11.302;2024-03-08T08:29:19;98447.13;;;5.74;100.00
33161;BME280;19522;45.656;11.302;2024-03-08T08:31:46;98445.53;;;5.81;100.00
33161;BME280;19522;45.656;11.302;2024-03-08T08:34:12;98459.31;;;5.78;100.00
33161;BME280;19522;45.656;11.302;2024-03-08T08:36:39;98451.00;;;5.71;100.00
33161;BME280;19522;45.656;11.302;2024-03-08T08:39:07;98386.94;;;5.39;100.00
33161;BME280;19522;45.656;11.302;2024-03-08T08:41:39;98458.09;;;5.54;100.00
33161;BME280;19522;45.656;11.302;2024-03-08T08:44:04;98453.03;;;5.51;100.00
33161;BME280;19522;45.656;11.302;2024-03-08T08:46:29;98394.66;;;5.15;100.00
33161;BME280;19522;45.656;11.302;2024-03-08T08:48:55;98438.31;;;5.64;100.00
33161;BME280;19522;45.656;11.302;2024-03-08T08:51:21;98446.56;;;5.88;100.00
33161;BME280;19522;45.656;11.302;2024-03-08T08:53:48;98426.66;;;5.81;100.00
33161;BME280;19522;45.656;11.302;2024-03-08T08:56:14;98452.09;;;6.05;100.00
33161;BME280;19522;45.656;11.302;2024-03-08T08:58:40;98400.59;;;5.90;98.71
33161;BME280;19522;45.656;11.302;2024-03-08T09:01:09;98449.19;;;6.33;100.00
33161;BME280;19522;45.656;11.302;2024-03-08T09:03:37;98449.97;;;6.51;100.00
33161;BME280;19522;45.656;11.302;2024-03-08T09:06:04;98450.31;;;6.14;100.00
33161;BME280;19522;45.656;11.302;2024-03-08T09:08:30;98429.00;;;5.84;100.00
33161;BME280;19522;45.656;11.302;2024-03-08T09:10:55;98434.00;;;6.23;100.00
33161;BME280;19522;45.656;11.302;2024-03-08T09:13:21;98441.06;;;6.24;100.00
33161;BME280;19522;45.656;11.302;2024-03-08T09:15:49;98430.00;;;5.83;100.00
33161;BME280;19522;45.656;11.302;2024-03-08T09:18:15;98442.34;;;5.86;100.00
33161;BME280;19522;45.656;11.302;2024-03-08T09:20:43;98384.84;;;5.77;100.00
33161;BME280;19522;45.656;11.302;2024-03-08T09:23:09;98361.81;;;5.56;100.00
33161;BME280;19522;45.656;11.302;2024-03-08T09:25:34;98373.00;;;5.96;100.00
33161;BME280;19522;45.656;11.302;2024-03-08T09:28:00;98436.16;;;5.67;98.26
33161;BME280;19522;45.656;11.302;2024-03-08T09:30:25;98448.78;;;5.67;98.76
33161;BME280;19522;45.656;11.302;2024-03-08T09:32:54;98426.09;;;5.51;100.00
33161;BME280;19522;45.656;11.302;2024-03-08T09:35:19;98412.09;;;5.48;100.00
33161;BME280;19522;45.656;11.302;2024-03-08T09:37:45;98431.72;;;5.84;100.00
33161;BME280;19522;45.656;11.302;2024-03-08T09:40:13;98435.81;;;5.70;100.00
33161;BME280;19522;45.656;11.302;2024-03-08T09:42:41;98423.41;;;5.77;100.00
33161;BME280;19522;45.656;11.302;2024-03-08T09:45:11;98440.00;;;5.91;100.00
33161;BME280;19522;45.656;11.302;2024-03-08T09:47:44;98437.97;;;5.85;100.00
33161;BME280;19522;45.656;11.302;2024-03-08T09:50:11;98408.56;;;5.47;100.00
33161;BME280;19522;45.656;11.302;2024-03-08T09:52:41;98437.41;;;5.55;100.00
33161;BME280;19522;45.656;11.302;2024-03-08T09:55:09;98429.19;;;5.83;100.00
33161;BME280;19522;45.656;11.302;2024-03-08T09:57:37;98428.72;;;5.87;100.00
33161;BME280;19522;45.656;11.302;2024-03-08T10:00:04;98420.25;;;5.82;100.00
33161;BME280;19522;45.656;11.302;2024-03-08T10:02:46;98432.78;;;5.91;100.00
33161;BME280;19522;45.656;11.302;2024-03-08T10:05:12;98430.44;;;5.70;100.00
33161;BME280;19522;45.656;11.302;2024-03-08T10:07:39;98408.03;;;5.43;100.00
33161;BME280;19522;45.656;11.302;2024-03-08T10:10:05;98412.19;;;5.38;100.00
33161;BME280;19522;45.656;11.302;2024-03-08T10:12:30;98372.53;;;4.86;100.00
33161;BME280;19522;45.656;11.302;2024-03-08T10:14:58;98455.56;;;5.35;100.00
33161;BME280;19522;45.656;11.302;2024-03-08T10:17:23;98453.34;;;5.48;100.00
33161;BME280;19522;45.656;11.302;2024-03-08T10:19:50;98446.78;;;5.51;100.00
33161;BME280;19522;45.656;11.302;2024-03-08T10:22:18;98456.59;;;5.34;100.00
33161;BME280;19522;45.656;11.302;2024-03-08T10:24:46;98437.47;;;5.45;100.00
33161;BME280;19522;45.656;11.302;2024-03-08T10:27:11;98439.34;;;5.44;100.00
33161;BME280;19522;45.656;11.302;2024-03-08T10:29:37;98449.75;;;5.84;100.00
33161;BME280;19522;45.656;11.302;2024-03-08T10:32:04;98448.22;;;5.81;100.00
33161;BME280;19522;45.656;11.302;2024-03-08T10:34:32;98453.00;;;5.96;100.00
33161;BME280;19522;45.656;11.302;2024-03-08T10:37:03;98448.97;;;5.91;100.00
33161;BME280;19522;45.656;11.302;2024-03-08T10:39:34;98449.69;;;6.02;100.00
33161;BME280;19522;45.656;11.302;2024-03-08T10:42:02;98423.56;;;5.76;100.00
33161;BME280;19522;45.656;11.302;2024-03-08T10:47:09;98449.06;;;5.64;100.00
33161;BME280;19522;45.656;11.302;2024-03-08T10:50:10;98454.41;;;5.55;100.00
33161;BME280;19522;45.656;11.302;2024-03-08T10:52:38;98456.97;;;5.57;100.00
33161;BME280;19522;45.656;11.302;2024-03-08T10:55:05;98455.56;;;5.71;100.00
33161;BME280;19522;45.656;11.302;2024-03-08T10:57:38;98454.22;;;5.75;100.00
33161;BME280;19522;45.656;11.302;2024-03-08T11:00:07;98448.50;;;5.52;100.00
33161;BME280;19522;45.656;11.302;2024-03-08T11:02:38;98438.19;;;5.47;100.00
33161;BME280;19522;45.656;11.302;2024-03-08T11:05:04;98413.78;;;5.75;100.00
33161;BME280;19522;45.656;11.302;2024-03-08T11:07:34;98444.66;;;5.81;100.00
33161;BME280;19522;45.656;11.302;2024-03-08T11:10:03;98440.00;;;5.65;100.00
33161;BME280;19522;45.656;11.302;2024-03-08T11:12:36;98430.50;;;5.52;100.00
33161;BME280;19522;45.656;11.302;2024-03-08T11:15:10;98418.03;;;5.51;100.00
33161;BME280;19522;45.656;11.302;2024-03-08T11:22:41;98416.63;;;5.47;100.00
33161;BME280;19522;45.656;11.302;2024-03-08T11:25:31;98423.94;;;5.55;100.00
33161;BME280;19522;45.656;11.302;2024-03-08T11:33:24;98408.06;;;5.70;100.00
33161;BME280;19522;45.656;11.302;2024-03-08T11:35:52;98434.25;;;6.12;100.00
33161;BME280;19522;45.656;11.302;2024-03-08T11:38:17;98431.44;;;5.96;100.00
33161;BME280;19522;45.656;11.302;2024-03-08T11:40:46;98429.03;;;6.11;100.00
33161;BME280;19522;45.656;11.302;2024-03-08T11:43:16;98413.59;;;5.95;100.00
33161;BME280;19522;45.656;11.302;2024-03-08T11:45:45;98418.06;;;6.47;100.00
33161;BME280;19522;45.656;11.302;2024-03-08T11:48:10;98421.47;;;6.57;100.00
33161;BME280;19522;45.656;11.302;2024-03-08T11:50:38;98397.97;;;6.41;100.00
33161;BME280;19522;45.656;11.302;2024-03-08T11:53:03;98406.06;;;6.41;100.00
33161;BME280;19522;45.656;11.302;2024-03-08T11:55:39;98420.31;;;6.60;100.00
33161;BME280;19522;45.656;11.302;2024-03-08T11:58:05;98423.38;;;5.96;100.00
33161;BME280;19522;45.656;11.302;2024-03-08T12:00:33;98396.53;;;5.86;100.00
33161;BME280;19522;45.656;11.302;2024-03-08T12:05:29;98390.66;;;5.90;100.00
33161;BME280;19522;45.656;11.302;2024-03-08T12:08:02;98406.19;;;5.97;100.00
33161;BME280;19522;45.656;11.302;2024-03-08T12:10:28;98328.31;;;5.59;100.00
33161;BME280;19522;45.656;11.302;2024-03-08T12:12:57;98353.63;;;5.66;100.00
33161;BME280;19522;45.656;11.302;2024-03-08T12:15:27;98403.22;;;5.82;100.00
33161;BME280;19522;45.656;11.302;2024-03-08T12:17:54;98378.97;;;5.82;100.00
33161;BME280;19522;45.656;11.302;2024-03-08T12:20:23;98403.03;;;6.01;100.00
33161;BME280;19522;45.656;11.302;2024-03-08T12:22:50;98409.34;;;5.92;100.00
33161;BME280;19522;45.656;11.302;2024-03-08T12:25:18;98394.97;;;5.83;100.00
33161;BME280;19522;45.656;11.302;2024-03-08T12:27:44;98399.88;;;5.88;100.00
33161;BME280;19522;45.656;11.302;2024-03-08T12:30:22;98374.13;;;6.20;100.00
33161;BME280;19522;45.656;11.302;2024-03-08T12:35:23;98393.69;;;6.14;100.00
33161;BME280;19522;45.656;11.302;2024-03-08T12:37:50;98319.41;;;5.58;100.00
33161;BME280;19522;45.656;11.302;2024-03-08T12:40:18;98361.16;;;6.15;100.00
33161;BME280;19522;45.656;11.302;2024-03-08T12:42:45;98382.75;;;6.23;100.00
33161;BME280;19522;45.656;11.302;2024-03-08T12:45:13;98345.63;;;6.09;100.00
33161;BME280;19522;45.656;11.302;2024-03-08T12:47:39;98377.56;;;6.30;100.00
33161;BME280;19522;45.656;11.302;2024-03-08T12:50:08;98384.44;;;6.24;98.38
33161;BME280;19522;45.656;11.302;2024-03-08T12:52:34;98356.59;;;5.81;100.00
33161;BME280;19522;45.656;11.302;2024-03-08T12:55:00;98371.41;;;5.85;100.00
33161;BME280;19522;45.656;11.302;2024-03-08T12:57:35;98343.50;;;5.95;100.00
33161;BME280;19522;45.656;11.302;2024-03-08T13:00:02;98342.56;;;6.04;100.00
33161;BME280;19522;45.656;11.302;2024-03-08T13:02:28;98361.19;;;6.23;100.00
33161;BME280;19522;45.656;11.302;2024-03-08T13:04:56;98355.44;;;6.18;100.00
33161;BME280;19522;45.656;11.302;2024-03-08T13:07:26;98367.25;;;6.26;100.00
33161;BME280;19522;45.656;11.302;2024-03-08T13:09:54;98340.00;;;6.37;99.96
33161;BME280;19522;45.656;11.302;2024-03-08T13:12:21;98314.63;;;6.21;100.00
33161;BME280;19522;45.656;11.302;2024-03-08T13:14:47;98365.25;;;6.28;100.00